createdAt,value
2022-11-24T09:25:06.079Z,10.25
2022-11-24T09:27:51.128Z,8.85
2022-11-24T09:30:36.107Z,8.73
2022-11-24T09:33:21.022Z,6.85
2022-11-24T09:36:06.049Z,7.38
2022-11-24T09:38:51.313Z,7.60
2022-11-24T09:41:45.375Z,6.40
2022-11-24T09:44:51.929Z,6.15
2022-11-24T09:47:36.470Z,5.70
2022-11-24T09:50:25.007Z,6.80
2022-11-24T09:53:09.675Z,6.03
2022-11-24T09:56:12.610Z,5.97
2022-11-24T09:59:02.356Z,5.82
2022-11-24T10:01:48.482Z,5.75
2022-11-24T10:04:41.411Z,6.05
2022-11-24T10:07:28.734Z,5.80
2022-11-24T10:10:25.042Z,5.45
2022-11-24T10:13:34.128Z,6.80
2022-11-24T10:16:28.167Z,7.07
2022-11-24T10:19:36.901Z,7.53
2022-11-24T10:22:27.733Z,8.18
2022-11-24T10:25:13.115Z,8.68
2022-11-24T10:28:02.959Z,7.88
2022-11-24T10:30:49.211Z,7.00
2022-11-24T10:33:35.278Z,7.93
2022-11-24T10:36:46.410Z,6.55
2022-11-24T10:39:59.683Z,7.35
2022-11-24T10:42:48.134Z,6.68
2022-11-24T10:45:33.000Z,6.63
2022-11-24T10:48:25.280Z,7.68
2022-11-24T10:51:40.189Z,7.75
2022-11-24T10:54:24.939Z,7.13
2022-11-24T10:57:26.911Z,7.43
2022-11-24T11:00:17.764Z,6.25
2022-11-24T11:03:21.182Z,6.10
2022-11-24T11:06:12.921Z,6.63
2022-11-24T11:09:06.658Z,6.13
2022-11-24T11:11:53.240Z,6.30
2022-11-24T11:14:38.274Z,6.78
2022-11-24T11:20:21.892Z,7.43
2022-11-24T11:23:42.247Z,7.35
2022-11-24T11:26:36.714Z,7.03
2022-11-24T11:35:33.149Z,7.40
2022-11-24T11:41:05.103Z,6.93
2022-11-24T11:44:00.178Z,6.88
2022-11-24T11:46:46.064Z,6.43
2022-11-24T11:49:30.871Z,6.53
2022-11-24T11:52:37.654Z,6.43
2022-11-24T11:55:58.215Z,6.90
2022-11-24T11:58:51.831Z,7.35
2022-11-24T12:01:58.674Z,7.35
2022-11-24T12:04:56.050Z,7.05
2022-11-24T12:07:53.598Z,7.15
2022-11-24T12:11:04.696Z,6.25
2022-11-24T12:14:11.115Z,6.20
2022-11-24T12:16:58.966Z,6.28
2022-11-24T12:20:07.285Z,6.70
2022-11-24T12:22:56.996Z,6.18
2022-11-24T12:25:50.262Z,6.70
2022-11-24T12:29:05.330Z,6.10
2022-11-24T12:31:53.046Z,5.95
2022-11-24T12:34:37.858Z,5.95
2022-11-24T12:37:32.488Z,5.32
2022-11-24T12:40:31.943Z,6.43
2022-11-24T12:43:36.183Z,5.78
2022-11-24T12:46:49.077Z,5.90
2022-11-24T12:49:49.358Z,6.57
2022-11-24T12:52:43.324Z,6.25
2022-11-24T12:55:31.757Z,6.22
2022-11-24T12:58:39.537Z,6.75
2022-11-24T13:01:24.193Z,5.70
2022-11-24T13:04:41.522Z,6.47
2022-11-24T13:07:57.462Z,6.20
2022-11-24T13:10:58.219Z,6.32
2022-11-24T13:13:56.532Z,5.80
2022-11-24T13:17:28.197Z,7.00
2022-11-24T13:20:25.579Z,6.03
2022-11-24T13:23:28.665Z,7.03
2022-11-24T13:26:27.178Z,7.63
2022-11-24T13:29:25.490Z,6.00
2022-11-24T13:32:19.412Z,6.53
2022-11-24T13:35:13.876Z,7.07
2022-11-24T13:37:59.008Z,6.47
2022-11-24T13:40:59.709Z,6.38
2022-11-24T13:44:14.304Z,6.95
2022-11-24T13:47:06.907Z,7.00
2022-11-24T13:49:51.487Z,6.30
2022-11-24T13:55:29.238Z,6.10
2022-11-24T13:58:14.056Z,6.25
2022-11-24T14:01:05.207Z,5.95
2022-11-24T14:04:29.952Z,6.68
2022-11-24T14:07:09.154Z,6.30
2022-11-24T14:10:18.461Z,5.75
2022-11-24T14:13:20.552Z,6.95
2022-11-24T14:16:14.271Z,7.40
2022-11-24T14:19:09.474Z,7.03
2022-11-24T14:21:54.714Z,6.55
2022-11-24T14:24:41.595Z,6.50
2022-11-24T14:27:36.676Z,6.55
2022-11-24T14:30:24.303Z,6.05
2022-11-24T14:33:11.523Z,6.25
2022-11-24T14:35:56.422Z,6.35
2022-11-24T14:38:42.010Z,5.70
2022-11-24T14:41:27.730Z,5.97
2022-11-24T14:44:41.576Z,5.47
2022-11-24T14:47:30.951Z,5.82
2022-11-24T14:50:21.418Z,5.75
2022-11-24T14:53:13.170Z,5.70
2022-11-24T14:56:24.855Z,5.45
2022-11-24T14:59:22.590Z,5.68
2022-11-24T15:05:11.119Z,5.03
2022-11-24T15:08:02.126Z,5.75
2022-11-24T15:10:47.119Z,6.05
2022-11-24T15:13:37.689Z,6.57
2022-11-24T15:16:25.473Z,6.75
2022-11-24T15:19:15.784Z,5.90
2022-11-24T15:22:00.831Z,7.18
2022-11-24T15:24:52.957Z,6.20
2022-11-24T15:27:38.152Z,6.28
2022-11-24T15:33:16.247Z,4.93
2022-11-24T15:36:01.172Z,5.38
2022-11-24T15:38:45.997Z,6.03
2022-11-24T15:41:33.218Z,5.57
2022-11-24T15:44:18.039Z,5.80
2022-11-24T15:47:03.087Z,7.15
2022-11-24T15:49:47.596Z,6.88
2022-11-24T15:52:31.922Z,6.22
2022-11-24T15:55:19.226Z,6.38
2022-11-24T15:58:03.687Z,6.30
2022-11-24T16:00:50.206Z,6.70
2022-11-24T16:03:50.153Z,6.80
2022-11-24T16:06:38.559Z,6.32
2022-11-24T16:09:23.431Z,6.45
2022-11-24T16:12:09.026Z,6.05
2022-11-24T16:14:54.154Z,6.50
2022-11-24T16:20:23.749Z,6.93
2022-11-24T16:23:08.494Z,7.57
2022-11-24T16:28:37.896Z,7.18
2022-11-24T16:31:23.543Z,7.35
2022-11-24T16:34:08.330Z,7.03
2022-11-24T16:36:53.243Z,8.40
2022-11-24T16:39:37.859Z,9.15
2022-11-24T16:42:22.149Z,9.20
2022-11-24T16:45:10.305Z,8.32
2022-11-24T16:47:55.158Z,6.85
2022-11-24T16:50:39.607Z,7.20
2022-11-24T16:53:24.241Z,7.25
2022-11-24T16:58:55.256Z,7.13
2022-11-24T17:01:40.548Z,6.35
2022-11-24T17:04:25.293Z,6.40
2022-11-24T17:07:10.247Z,6.75
2022-11-24T17:09:55.317Z,6.20
2022-11-24T17:12:40.321Z,6.22
2022-11-24T17:15:33.517Z,5.97
2022-11-24T17:18:25.203Z,6.60
2022-11-24T17:21:16.358Z,6.68
2022-11-24T17:24:08.150Z,7.45
2022-11-24T17:26:53.060Z,8.40
2022-11-24T17:29:37.596Z,6.78
2022-11-24T17:32:22.316Z,6.53
2022-11-24T17:35:07.817Z,6.35
2022-11-24T17:37:52.571Z,7.82
2022-11-24T17:40:37.625Z,7.22
2022-11-24T17:43:22.367Z,8.00
2022-11-24T17:46:07.533Z,9.85
2022-11-24T17:48:52.774Z,10.30
2022-11-24T17:54:46.021Z,11.27
2022-11-24T17:57:26.883Z,11.13
2022-11-24T18:03:00.665Z,9.88
2022-11-24T18:05:45.142Z,8.43
2022-11-24T18:08:32.285Z,9.88
2022-11-24T18:11:21.899Z,9.20
2022-11-24T18:14:09.840Z,8.07
2022-11-24T18:19:39.833Z,7.00
2022-11-24T18:22:50.072Z,7.03
2022-11-24T18:25:29.028Z,8.02
2022-11-24T18:31:06.252Z,9.63
2022-11-24T18:33:51.032Z,10.07
2022-11-24T18:36:36.071Z,9.10
2022-11-24T18:39:20.585Z,8.95
2022-11-24T18:42:05.761Z,9.35
2022-11-24T18:44:54.027Z,9.13
2022-11-24T18:47:39.526Z,10.43
2022-11-24T18:50:24.251Z,11.52
2022-11-24T18:53:09.028Z,12.40
2022-11-24T18:58:52.694Z,11.18
2022-11-24T19:01:37.919Z,12.70
2022-11-24T19:04:23.461Z,12.55
2022-11-24T19:07:08.301Z,12.00
2022-11-24T19:09:52.850Z,11.52
2022-11-24T19:15:22.436Z,11.27
2022-11-24T19:18:07.181Z,11.38
2022-11-24T19:23:36.808Z,10.48
2022-11-24T19:26:21.590Z,10.70
2022-11-24T19:29:07.853Z,12.52
2022-11-24T19:31:54.135Z,11.48
2022-11-24T19:34:39.063Z,11.15
2022-11-24T19:37:23.836Z,10.70
2022-11-24T19:40:09.295Z,10.48
2022-11-24T19:45:43.451Z,9.45
2022-11-24T19:48:43.084Z,11.95
2022-11-24T19:51:33.415Z,11.85
2022-11-24T19:54:18.262Z,11.40
2022-11-24T19:57:02.890Z,11.02
2022-11-24T19:59:48.157Z,11.60
2022-11-24T20:02:32.869Z,9.90
2022-11-24T20:08:02.809Z,8.85
2022-11-24T20:10:47.572Z,8.75
2022-11-24T20:16:27.371Z,7.95
2022-11-24T20:21:57.311Z,9.40
2022-11-24T20:24:41.888Z,10.40
2022-11-24T20:30:11.400Z,8.70
2022-11-24T20:35:41.196Z,9.48
2022-11-24T20:38:28.002Z,9.05
2022-11-24T20:41:34.635Z,9.32
2022-11-24T20:44:21.421Z,9.75
2022-11-24T20:47:06.464Z,9.88
2022-11-24T20:49:51.308Z,9.48
2022-11-24T20:55:21.106Z,8.65
2022-11-24T21:00:51.631Z,9.45
2022-11-24T21:03:42.587Z,9.13
2022-11-24T21:06:29.232Z,8.88
2022-11-24T21:09:14.685Z,8.90
2022-11-24T21:11:59.831Z,9.15
2022-11-24T21:17:31.603Z,8.68
2022-11-24T21:20:16.343Z,9.15
2022-11-24T21:23:02.455Z,8.93
2022-11-24T21:25:46.894Z,8.95
2022-11-24T21:31:19.332Z,8.73
2022-11-24T21:34:05.110Z,8.45
2022-11-24T21:36:50.343Z,8.65
2022-11-24T22:29:36.647Z,7.60
2022-11-24T22:35:06.614Z,6.50
2022-11-24T22:37:51.223Z,6.90
2022-11-24T22:40:35.876Z,6.70
2022-11-24T22:43:23.094Z,5.80
2022-11-24T22:46:19.376Z,6.50
2022-11-24T22:49:04.058Z,7.75
2022-11-24T22:51:48.568Z,6.43
2022-11-24T22:54:33.465Z,7.35
2022-11-24T22:57:18.630Z,6.80
2022-11-24T23:00:04.114Z,6.43
2022-11-24T23:02:48.751Z,7.03
2022-11-24T23:05:33.371Z,5.70
2022-11-24T23:08:18.134Z,6.97
2022-11-24T23:11:05.865Z,5.60
2022-11-24T23:13:55.330Z,5.43
2022-11-24T23:16:40.583Z,5.40
2022-11-24T23:19:25.493Z,6.38
2022-11-24T23:22:10.174Z,5.45
2022-11-24T23:24:55.347Z,5.90
2022-11-24T23:27:39.856Z,5.78
2022-11-24T23:30:24.629Z,5.95
2022-11-24T23:33:09.519Z,6.20
2022-11-24T23:35:53.883Z,6.32
2022-11-24T23:38:39.136Z,6.13
2022-11-24T23:44:09.580Z,6.00
2022-11-24T23:46:54.116Z,5.75
2022-11-24T23:52:23.500Z,5.20
2022-11-24T23:55:08.557Z,5.57
2022-11-24T23:57:53.493Z,4.65
